ARG1690 SABE-SAZS
Flight info
| Callsign | ARG1690 |
|---|---|
| Flight time | 1h 55m |
| Altitude | 32000 |
| Route | PAL9 TORUL UT654 ORERA ORERA2Q |
| Aircraft | B738/M-SDE2E3FGHIRWXY/LB1 |
Departure
| Time | 2026-04-20 23:17 |
|---|---|
| Airport | Aeroparque Jorge Newbery (SABE) |
Arrival
| Time | 2026-04-21 01:13 |
|---|---|
| Airport | Teniente Luis Candelaria International Airport (SAZS) |
| Time | Latitude | Longitude | Altitude | Speed | Heading |
|---|---|---|---|---|---|
| 2026-04-20 22:22 | -34.55967 | -58.41014 | 24 ft | 0 kts | 58° |
| 2026-04-20 23:04 | -34.55975 | -58.41029 | 24 ft | 4 kts | 54° |
| 2026-04-20 23:04 | -34.55992 | -58.41053 | 28 ft | 4 kts | 25° |
| 2026-04-20 23:05 | -34.56011 | -58.41054 | 30 ft | 3 kts | 318° |
| 2026-04-20 23:05 | -34.56029 | -58.41032 | 30 ft | 4 kts | 310° |
| 2026-04-20 23:05 | -34.56044 | -58.41009 | 29 ft | 1 kts | 308° |
| 2026-04-20 23:05 | -34.56045 | -58.41009 | 28 ft | 0 kts | 308° |
| 2026-04-20 23:10 | -34.56044 | -58.41010 | 27 ft | 0 kts | 308° |
| 2026-04-20 23:10 | -34.56037 | -58.41021 | 25 ft | 3 kts | 308° |
| 2026-04-20 23:10 | -34.56033 | -58.41043 | 27 ft | 3 kts | 264° |
| 2026-04-20 23:10 | -34.56045 | -58.41063 | 17 ft | 3 kts | 226° |
| 2026-04-20 23:11 | -34.56053 | -58.41086 | 12 ft | 3 kts | 268° |
| 2026-04-20 23:11 | -34.56044 | -58.41112 | 24 ft | 5 kts | 305° |
| 2026-04-20 23:11 | -34.56018 | -58.41153 | 26 ft | 8 kts | 307° |
| 2026-04-20 23:11 | -34.55980 | -58.41211 | 26 ft | 10 kts | 307° |
| 2026-04-20 23:12 | -34.55940 | -58.41275 | 27 ft | 9 kts | 306° |
| 2026-04-20 23:12 | -34.55908 | -58.41341 | 25 ft | 9 kts | 297° |
| 2026-04-20 23:12 | -34.55880 | -58.41408 | 24 ft | 9 kts | 297° |
| 2026-04-20 23:12 | -34.55853 | -58.41473 | 26 ft | 9 kts | 297° |
| 2026-04-20 23:13 | -34.55826 | -58.41536 | 25 ft | 8 kts | 297° |
| 2026-04-20 23:13 | -34.55800 | -58.41597 | 27 ft | 8 kts | 297° |
| 2026-04-20 23:13 | -34.55776 | -58.41657 | 28 ft | 8 kts | 296° |
| 2026-04-20 23:13 | -34.55752 | -58.41715 | 24 ft | 8 kts | 296° |
| 2026-04-20 23:14 | -34.55728 | -58.41771 | 26 ft | 8 kts | 301° |
| 2026-04-20 23:14 | -34.55692 | -58.41836 | 24 ft | 10 kts | 304° |
| 2026-04-20 23:14 | -34.55648 | -58.41914 | 25 ft | 12 kts | 304° |
| 2026-04-20 23:14 | -34.55602 | -58.41996 | 25 ft | 12 kts | 304° |
| 2026-04-20 23:15 | -34.55556 | -58.42076 | 24 ft | 11 kts | 307° |
| 2026-04-20 23:15 | -34.55508 | -58.42152 | 26 ft | 12 kts | 307° |
| 2026-04-20 23:15 | -34.55455 | -58.42238 | 28 ft | 13 kts | 307° |
| 2026-04-20 23:15 | -34.55400 | -58.42325 | 24 ft | 13 kts | 307° |
| 2026-04-20 23:16 | -34.55366 | -58.42408 | 26 ft | 10 kts | 281° |
| 2026-04-20 23:16 | -34.55368 | -58.42492 | 26 ft | 10 kts | 239° |
| 2026-04-20 23:16 | -34.55421 | -58.42486 | 25 ft | 8 kts | 124° |
| 2026-04-20 23:16 | -34.55430 | -58.42468 | 26 ft | 0 kts | 122° |
| 2026-04-20 23:17 | -34.55530 | -58.42284 | 27 ft | 64 kts | 124° |
| 2026-04-20 23:17 | -34.55923 | -58.41581 | 26 ft | 135 kts | 123° |
| 2026-04-20 23:17 | -34.56513 | -58.40517 | 513 ft | 160 kts | 122° |
| 2026-04-20 23:17 | -34.57143 | -58.39341 | 1372 ft | 176 kts | 116° |
| 2026-04-20 23:18 | -34.57371 | -58.37817 | 1893 ft | 193 kts | 76° |
| 2026-04-20 23:18 | -34.56734 | -58.36342 | 2436 ft | 205 kts | 56° |
| 2026-04-20 23:18 | -34.55872 | -58.34860 | 2831 ft | 229 kts | 58° |
| 2026-04-20 23:18 | -34.54997 | -58.33176 | 3523 ft | 237 kts | 58° |
| 2026-04-20 23:19 | -34.54140 | -58.31399 | 4243 ft | 246 kts | 59° |
| 2026-04-20 23:19 | -34.53225 | -58.29608 | 4984 ft | 253 kts | 46° |
| 2026-04-20 23:19 | -34.51731 | -58.28546 | 5735 ft | 258 kts | 10° |
| 2026-04-20 23:19 | -34.49967 | -58.28804 | 6545 ft | 264 kts | 335° |
| 2026-04-20 23:20 | -34.48611 | -58.30308 | 7288 ft | 273 kts | 300° |
| 2026-04-20 23:20 | -34.48199 | -58.32550 | 8127 ft | 280 kts | 266° |
| 2026-04-20 23:20 | -34.48889 | -58.34748 | 9049 ft | 285 kts | 237° |
| 2026-04-20 23:20 | -34.50098 | -58.36650 | 9932 ft | 285 kts | 236° |
| 2026-04-20 23:21 | -34.51273 | -58.38610 | 10535 ft | 294 kts | 239° |
| 2026-04-20 23:21 | -34.52429 | -58.40781 | 10699 ft | 318 kts | 240° |
| 2026-04-20 23:21 | -34.53580 | -58.43169 | 10915 ft | 338 kts | 244° |
| 2026-04-20 23:21 | -34.54720 | -58.45724 | 11422 ft | 345 kts | 245° |
| 2026-04-20 23:22 | -34.55802 | -58.48232 | 12643 ft | 330 kts | 246° |
| 2026-04-20 23:22 | -34.56845 | -58.50681 | 13739 ft | 323 kts | 245° |
| 2026-04-20 23:22 | -34.57916 | -58.53083 | 14418 ft | 327 kts | 238° |
| 2026-04-20 23:22 | -34.59455 | -58.55153 | 15046 ft | 335 kts | 224° |
| 2026-04-20 23:23 | -34.61379 | -58.56805 | 15712 ft | 342 kts | 213° |
| 2026-04-20 23:23 | -34.63563 | -58.58007 | 16343 ft | 350 kts | 201° |
| 2026-04-20 23:23 | -34.65976 | -58.58620 | 16981 ft | 358 kts | 189° |
| 2026-04-20 23:23 | -34.68491 | -58.58608 | 17590 ft | 368 kts | 175° |
| 2026-04-20 23:24 | -34.71004 | -58.57879 | 18208 ft | 374 kts | 166° |
| 2026-04-20 23:24 | -34.73495 | -58.56913 | 18754 ft | 378 kts | 165° |
| 2026-04-20 23:24 | -34.76020 | -58.55927 | 19262 ft | 382 kts | 166° |
| 2026-04-20 23:24 | -34.78586 | -58.55062 | 19728 ft | 384 kts | 176° |
| 2026-04-20 23:25 | -34.81180 | -58.55219 | 20188 ft | 376 kts | 200° |
| 2026-04-20 23:25 | -34.83543 | -58.56465 | 20748 ft | 368 kts | 218° |
| 2026-04-20 23:25 | -34.85492 | -58.58478 | 21285 ft | 360 kts | 234° |
| 2026-04-20 23:25 | -34.87014 | -58.60849 | 21825 ft | 360 kts | 238° |
| 2026-04-20 23:26 | -34.88514 | -58.63350 | 22356 ft | 363 kts | 239° |
| 2026-04-20 23:26 | -34.89994 | -58.65859 | 22874 ft | 365 kts | 239° |
| 2026-04-20 23:26 | -34.91483 | -58.68378 | 23362 ft | 370 kts | 239° |
| 2026-04-20 23:26 | -34.93019 | -58.70965 | 23437 ft | 384 kts | 239° |
| 2026-04-20 23:27 | -34.94595 | -58.73604 | 23532 ft | 396 kts | 238° |
| 2026-04-20 23:27 | -34.96248 | -58.76355 | 23617 ft | 408 kts | 238° |
| 2026-04-20 23:27 | -34.97946 | -58.79172 | 23785 ft | 416 kts | 238° |
| 2026-04-20 23:27 | -34.99691 | -58.82059 | 24135 ft | 418 kts | 238° |
| 2026-04-20 23:28 | -35.01397 | -58.84878 | 24548 ft | 418 kts | 238° |
| 2026-04-20 23:28 | -35.03146 | -58.87772 | 24941 ft | 419 kts | 239° |
| 2026-04-20 23:28 | -35.04857 | -58.90609 | 25293 ft | 422 kts | 239° |
| 2026-04-20 23:28 | -35.06623 | -58.93540 | 25632 ft | 424 kts | 239° |
| 2026-04-20 23:29 | -35.08370 | -58.96445 | 25965 ft | 426 kts | 239° |
| 2026-04-20 23:29 | -35.10127 | -58.99368 | 26316 ft | 428 kts | 239° |
| 2026-04-20 23:29 | -35.11887 | -59.02299 | 26695 ft | 428 kts | 239° |
| 2026-04-20 23:29 | -35.13625 | -59.05195 | 27092 ft | 428 kts | 239° |
| 2026-04-20 23:30 | -35.15387 | -59.08134 | 27429 ft | 430 kts | 240° |
| 2026-04-20 23:30 | -35.17156 | -59.11087 | 27761 ft | 431 kts | 240° |
| 2026-04-20 23:30 | -35.18924 | -59.14039 | 28186 ft | 430 kts | 240° |
| 2026-04-20 23:30 | -35.20703 | -59.17023 | 28682 ft | 427 kts | 240° |
| 2026-04-20 23:31 | -35.22417 | -59.19970 | 29158 ft | 424 kts | 241° |
| 2026-04-20 23:31 | -35.24088 | -59.22884 | 29590 ft | 423 kts | 242° |
| 2026-04-20 23:31 | -35.25794 | -59.25872 | 30014 ft | 422 kts | 242° |
| 2026-04-20 23:31 | -35.27477 | -59.28819 | 30404 ft | 421 kts | 242° |
| 2026-04-20 23:32 | -35.29131 | -59.31708 | 30770 ft | 420 kts | 242° |
| 2026-04-20 23:32 | -35.30806 | -59.34633 | 31135 ft | 419 kts | 242° |
| 2026-04-20 23:32 | -35.32479 | -59.37552 | 31455 ft | 419 kts | 242° |
| 2026-04-20 23:32 | -35.34149 | -59.40468 | 31792 ft | 418 kts | 243° |
| 2026-04-20 23:33 | -35.35816 | -59.43381 | 32090 ft | 418 kts | 243° |
| 2026-04-20 23:33 | -35.37502 | -59.46312 | 32073 ft | 422 kts | 242° |
| 2026-04-20 23:33 | -35.40927 | -59.52150 | 32079 ft | 419 kts | 242° |
| 2026-04-20 23:34 | -35.44316 | -59.57907 | 32092 ft | 416 kts | 242° |
| 2026-04-20 23:34 | -35.47691 | -59.63675 | 32100 ft | 417 kts | 242° |
| 2026-04-20 23:35 | -35.52762 | -59.72371 | 32115 ft | 418 kts | 243° |
| 2026-04-20 23:36 | -35.56146 | -59.78186 | 32100 ft | 419 kts | 243° |
| 2026-04-20 23:36 | -35.59528 | -59.84007 | 32096 ft | 418 kts | 243° |
| 2026-04-20 23:37 | -35.62902 | -59.89822 | 32114 ft | 418 kts | 243° |
| 2026-04-20 23:37 | -35.66269 | -59.95637 | 32109 ft | 417 kts | 243° |
| 2026-04-20 23:38 | -35.69627 | -60.01445 | 32106 ft | 416 kts | 243° |
| 2026-04-20 23:38 | -35.72959 | -60.07219 | 32113 ft | 415 kts | 243° |
| 2026-04-20 23:39 | -35.76299 | -60.13016 | 32111 ft | 415 kts | 243° |
| 2026-04-20 23:39 | -35.79631 | -60.18810 | 32128 ft | 415 kts | 243° |
| 2026-04-20 23:40 | -35.82967 | -60.24621 | 32125 ft | 416 kts | 243° |
| 2026-04-20 23:40 | -35.85772 | -60.29517 | 32121 ft | 418 kts | 243° |
| 2026-04-20 23:41 | -35.89105 | -60.35340 | 32120 ft | 420 kts | 243° |
| 2026-04-20 23:41 | -35.92475 | -60.41237 | 32122 ft | 421 kts | 243° |
| 2026-04-20 23:42 | -35.95858 | -60.47167 | 32160 ft | 424 kts | 243° |
| 2026-04-20 23:42 | -35.99258 | -60.53137 | 32134 ft | 426 kts | 243° |
| 2026-04-20 23:43 | -36.02670 | -60.59139 | 32129 ft | 427 kts | 243° |
| 2026-04-20 23:43 | -36.06088 | -60.65160 | 32127 ft | 428 kts | 244° |
| 2026-04-20 23:44 | -36.09503 | -60.71188 | 32127 ft | 428 kts | 244° |
| 2026-04-20 23:44 | -36.12916 | -60.77221 | 32148 ft | 428 kts | 244° |
| 2026-04-20 23:45 | -36.16307 | -60.83258 | 32130 ft | 427 kts | 244° |
| 2026-04-20 23:45 | -36.19681 | -60.89290 | 32137 ft | 425 kts | 244° |
| 2026-04-20 23:46 | -36.23041 | -60.95307 | 32132 ft | 424 kts | 245° |
| 2026-04-20 23:46 | -36.26385 | -61.01302 | 32139 ft | 423 kts | 245° |
| 2026-04-20 23:47 | -36.29721 | -61.07294 | 32144 ft | 422 kts | 245° |
| 2026-04-20 23:47 | -36.33051 | -61.13288 | 32140 ft | 422 kts | 245° |
| 2026-04-20 23:48 | -36.36379 | -61.19285 | 32150 ft | 423 kts | 245° |
| 2026-04-20 23:48 | -36.39720 | -61.25319 | 32151 ft | 423 kts | 245° |
| 2026-04-20 23:49 | -36.43056 | -61.31354 | 32144 ft | 424 kts | 245° |
| 2026-04-20 23:49 | -36.46396 | -61.37410 | 32150 ft | 425 kts | 245° |
| 2026-04-20 23:50 | -36.49737 | -61.43478 | 32153 ft | 426 kts | 245° |
| 2026-04-20 23:50 | -36.53080 | -61.49559 | 32148 ft | 426 kts | 245° |
| 2026-04-20 23:51 | -36.56423 | -61.55651 | 32152 ft | 426 kts | 245° |
| 2026-04-20 23:51 | -36.59760 | -61.61743 | 32140 ft | 426 kts | 245° |
| 2026-04-20 23:52 | -36.63089 | -61.67833 | 32157 ft | 425 kts | 245° |
| 2026-04-20 23:52 | -36.66415 | -61.73927 | 32157 ft | 425 kts | 245° |
| 2026-04-20 23:53 | -36.69733 | -61.80018 | 32161 ft | 425 kts | 245° |
| 2026-04-20 23:53 | -36.73044 | -61.86108 | 32155 ft | 424 kts | 245° |
| 2026-04-20 23:54 | -36.76353 | -61.92205 | 32200 ft | 424 kts | 245° |
| 2026-04-20 23:54 | -36.79639 | -61.98321 | 32159 ft | 424 kts | 245° |
| 2026-04-20 23:55 | -36.82946 | -62.04427 | 32156 ft | 425 kts | 244° |
| 2026-04-20 23:55 | -36.86261 | -62.10520 | 32165 ft | 424 kts | 244° |
| 2026-04-20 23:56 | -36.89554 | -62.16629 | 32161 ft | 424 kts | 244° |
| 2026-04-20 23:56 | -36.92837 | -62.22736 | 32195 ft | 423 kts | 244° |
| 2026-04-20 23:57 | -36.96116 | -62.28849 | 32171 ft | 423 kts | 244° |
| 2026-04-20 23:57 | -36.99386 | -62.34949 | 32162 ft | 422 kts | 244° |
| 2026-04-20 23:58 | -37.02646 | -62.41043 | 32172 ft | 421 kts | 244° |
| 2026-04-20 23:58 | -37.05897 | -62.47131 | 32169 ft | 420 kts | 244° |
| 2026-04-20 23:59 | -37.09136 | -62.53208 | 32198 ft | 419 kts | 244° |
| 2026-04-20 23:59 | -37.12369 | -62.59286 | 32176 ft | 419 kts | 243° |
| 2026-04-21 00:00 | -37.15599 | -62.65368 | 32173 ft | 419 kts | 244° |
| 2026-04-21 00:00 | -37.18822 | -62.71448 | 32192 ft | 419 kts | 243° |
| 2026-04-21 00:01 | -37.22046 | -62.77542 | 32190 ft | 419 kts | 243° |
| 2026-04-21 00:01 | -37.25270 | -62.83646 | 32208 ft | 420 kts | 243° |
| 2026-04-21 00:02 | -37.28495 | -62.89765 | 32180 ft | 421 kts | 243° |
| 2026-04-21 00:02 | -37.31720 | -62.95892 | 32180 ft | 421 kts | 243° |
| 2026-04-21 00:03 | -37.34945 | -63.02031 | 32182 ft | 421 kts | 243° |
| 2026-04-21 00:03 | -37.38155 | -63.08134 | 32188 ft | 421 kts | 243° |
| 2026-04-21 00:04 | -37.41385 | -63.14277 | 32218 ft | 421 kts | 243° |
| 2026-04-21 00:04 | -37.44616 | -63.20436 | 32197 ft | 422 kts | 243° |
| 2026-04-21 00:05 | -37.47847 | -63.26610 | 32190 ft | 422 kts | 243° |
| 2026-04-21 00:05 | -37.51072 | -63.32781 | 32192 ft | 422 kts | 243° |
| 2026-04-21 00:06 | -37.54296 | -63.38964 | 32193 ft | 422 kts | 243° |
| 2026-04-21 00:06 | -37.57517 | -63.45153 | 32224 ft | 422 kts | 243° |
| 2026-04-21 00:07 | -37.60738 | -63.51354 | 32206 ft | 423 kts | 243° |
| 2026-04-21 00:07 | -37.63962 | -63.57573 | 32196 ft | 424 kts | 243° |
| 2026-04-21 00:08 | -37.67190 | -63.63808 | 32201 ft | 425 kts | 243° |
| 2026-04-21 00:08 | -37.70419 | -63.70059 | 32198 ft | 425 kts | 243° |
| 2026-04-21 00:09 | -37.73649 | -63.76325 | 32216 ft | 426 kts | 243° |
| 2026-04-21 00:09 | -37.76882 | -63.82607 | 32202 ft | 427 kts | 243° |
| 2026-04-21 00:10 | -37.80116 | -63.88904 | 32196 ft | 427 kts | 243° |
| 2026-04-21 00:10 | -37.83351 | -63.95214 | 32193 ft | 427 kts | 243° |
| 2026-04-21 00:11 | -37.86580 | -64.01523 | 32197 ft | 427 kts | 243° |
| 2026-04-21 00:11 | -37.89804 | -64.07837 | 32207 ft | 428 kts | 243° |
| 2026-04-21 00:12 | -37.93031 | -64.14168 | 32204 ft | 428 kts | 243° |
| 2026-04-21 00:12 | -37.96255 | -64.20504 | 32200 ft | 428 kts | 243° |
| 2026-04-21 00:13 | -37.99474 | -64.26846 | 32200 ft | 428 kts | 243° |
| 2026-04-21 00:13 | -38.02691 | -64.33195 | 32203 ft | 428 kts | 243° |
| 2026-04-21 00:14 | -38.05908 | -64.39556 | 32207 ft | 429 kts | 243° |
| 2026-04-21 00:14 | -38.09132 | -64.45941 | 32209 ft | 429 kts | 243° |
| 2026-04-21 00:15 | -38.12351 | -64.52337 | 32203 ft | 430 kts | 243° |
| 2026-04-21 00:15 | -38.15566 | -64.58744 | 32205 ft | 430 kts | 243° |
| 2026-04-21 00:16 | -38.18775 | -64.65156 | 32208 ft | 430 kts | 243° |
| 2026-04-21 00:16 | -38.21982 | -64.71573 | 32203 ft | 430 kts | 243° |
| 2026-04-21 00:17 | -38.25182 | -64.77992 | 32204 ft | 430 kts | 243° |
| 2026-04-21 00:17 | -38.28378 | -64.84413 | 32206 ft | 429 kts | 243° |
| 2026-04-21 00:18 | -38.31566 | -64.90831 | 32206 ft | 429 kts | 243° |
| 2026-04-21 00:18 | -38.34750 | -64.97253 | 32212 ft | 428 kts | 243° |
| 2026-04-21 00:19 | -38.37926 | -65.03674 | 32212 ft | 428 kts | 244° |
| 2026-04-21 00:19 | -38.41099 | -65.10099 | 32205 ft | 428 kts | 244° |
| 2026-04-21 00:20 | -38.43736 | -65.15449 | 32209 ft | 428 kts | 244° |
| 2026-04-21 00:20 | -38.47432 | -65.22964 | 32204 ft | 428 kts | 244° |
| 2026-04-21 00:21 | -38.50080 | -65.28358 | 32199 ft | 428 kts | 244° |
| 2026-04-21 00:21 | -38.53236 | -65.34799 | 32211 ft | 428 kts | 243° |
| 2026-04-21 00:22 | -38.56393 | -65.41254 | 32204 ft | 428 kts | 243° |
| 2026-04-21 00:22 | -38.59544 | -65.47712 | 32201 ft | 429 kts | 243° |
| 2026-04-21 00:23 | -38.62697 | -65.54184 | 32201 ft | 429 kts | 243° |
| 2026-04-21 00:23 | -38.65844 | -65.60660 | 32202 ft | 429 kts | 243° |
| 2026-04-21 00:24 | -38.68973 | -65.67111 | 32206 ft | 430 kts | 242° |
| 2026-04-21 00:24 | -38.72148 | -65.73668 | 32203 ft | 431 kts | 243° |
| 2026-04-21 00:25 | -38.75305 | -65.80203 | 32198 ft | 432 kts | 243° |
| 2026-04-21 00:25 | -38.78469 | -65.86766 | 32199 ft | 433 kts | 242° |
| 2026-04-21 00:26 | -38.81639 | -65.93350 | 32220 ft | 435 kts | 242° |
| 2026-04-21 00:26 | -38.84818 | -65.99968 | 32207 ft | 437 kts | 241° |
| 2026-04-21 00:27 | -38.88003 | -66.06620 | 32206 ft | 438 kts | 241° |
| 2026-04-21 00:27 | -38.91198 | -66.13302 | 32205 ft | 440 kts | 241° |
| 2026-04-21 00:28 | -38.94389 | -66.20005 | 32205 ft | 440 kts | 241° |
| 2026-04-21 00:28 | -38.97581 | -66.26731 | 32213 ft | 441 kts | 241° |
| 2026-04-21 00:29 | -39.00773 | -66.33470 | 32206 ft | 442 kts | 241° |
| 2026-04-21 00:29 | -39.03963 | -66.40220 | 32202 ft | 442 kts | 241° |
| 2026-04-21 00:30 | -39.07151 | -66.46980 | 32207 ft | 442 kts | 241° |
| 2026-04-21 00:30 | -39.10330 | -66.53734 | 32202 ft | 441 kts | 241° |
| 2026-04-21 00:31 | -39.13506 | -66.60496 | 32213 ft | 441 kts | 241° |
| 2026-04-21 00:31 | -39.16655 | -66.67214 | 32211 ft | 441 kts | 241° |
| 2026-04-21 00:32 | -39.19819 | -66.73979 | 32204 ft | 441 kts | 241° |
| 2026-04-21 00:32 | -39.22976 | -66.80744 | 32209 ft | 440 kts | 241° |
| 2026-04-21 00:33 | -39.26128 | -66.87512 | 32211 ft | 440 kts | 241° |
| 2026-04-21 00:33 | -39.29270 | -66.94271 | 32219 ft | 439 kts | 240° |
| 2026-04-21 00:34 | -39.32402 | -67.01024 | 32206 ft | 438 kts | 240° |
| 2026-04-21 00:34 | -39.35527 | -67.07781 | 32200 ft | 437 kts | 240° |
| 2026-04-21 00:35 | -39.38638 | -67.14520 | 32204 ft | 437 kts | 240° |
| 2026-04-21 00:35 | -39.41744 | -67.21263 | 32203 ft | 436 kts | 240° |
| 2026-04-21 00:36 | -39.44844 | -67.28004 | 32203 ft | 436 kts | 239° |
| 2026-04-21 00:36 | -39.47944 | -67.34759 | 32202 ft | 437 kts | 239° |
| 2026-04-21 00:37 | -39.51046 | -67.41537 | 32208 ft | 438 kts | 239° |
| 2026-04-21 00:37 | -39.54148 | -67.48331 | 32195 ft | 439 kts | 238° |
| 2026-04-21 00:38 | -39.57254 | -67.55149 | 32207 ft | 440 kts | 237° |
| 2026-04-21 00:38 | -39.60369 | -67.61996 | 32202 ft | 441 kts | 237° |
| 2026-04-21 00:39 | -39.63485 | -67.68860 | 32203 ft | 442 kts | 237° |
| 2026-04-21 00:39 | -39.66602 | -67.75747 | 32203 ft | 443 kts | 237° |
| 2026-04-21 00:40 | -39.69718 | -67.82646 | 32195 ft | 443 kts | 237° |
| 2026-04-21 00:40 | -39.72831 | -67.89554 | 32208 ft | 443 kts | 237° |
| 2026-04-21 00:41 | -39.75935 | -67.96456 | 32208 ft | 442 kts | 237° |
| 2026-04-21 00:41 | -39.79030 | -68.03353 | 32204 ft | 441 kts | 237° |
| 2026-04-21 00:42 | -39.82171 | -68.10208 | 32199 ft | 440 kts | 235° |
| 2026-04-21 00:42 | -39.85542 | -68.16843 | 32207 ft | 439 kts | 233° |
| 2026-04-21 00:43 | -39.88951 | -68.23438 | 32200 ft | 438 kts | 232° |
| 2026-04-21 00:43 | -39.92327 | -68.30046 | 32206 ft | 438 kts | 232° |
| 2026-04-21 00:44 | -39.95684 | -68.36670 | 32212 ft | 438 kts | 232° |
| 2026-04-21 00:44 | -39.99040 | -68.43321 | 32212 ft | 439 kts | 232° |
| 2026-04-21 00:45 | -40.04071 | -68.53323 | 32184 ft | 440 kts | 231° |
| 2026-04-21 00:45 | -40.07423 | -68.60003 | 32202 ft | 439 kts | 231° |
| 2026-04-21 00:46 | -40.10767 | -68.66680 | 32210 ft | 439 kts | 231° |
| 2026-04-21 00:46 | -40.14071 | -68.73291 | 32208 ft | 439 kts | 231° |
| 2026-04-21 00:47 | -40.17400 | -68.79965 | 32210 ft | 438 kts | 231° |
| 2026-04-21 00:47 | -40.20724 | -68.86644 | 32187 ft | 437 kts | 231° |
| 2026-04-21 00:48 | -40.24030 | -68.93302 | 32195 ft | 436 kts | 231° |
| 2026-04-21 00:48 | -40.27298 | -68.99904 | 32153 ft | 424 kts | 231° |
| 2026-04-21 00:49 | -40.28891 | -69.03130 | 31834 ft | 417 kts | 231° |
| 2026-04-21 00:49 | -40.30456 | -69.06297 | 31455 ft | 413 kts | 231° |
| 2026-04-21 00:49 | -40.32010 | -69.09439 | 31068 ft | 409 kts | 231° |
| 2026-04-21 00:49 | -40.33547 | -69.12551 | 30696 ft | 405 kts | 231° |
| 2026-04-21 00:50 | -40.34564 | -69.14614 | 30441 ft | 403 kts | 231° |
| 2026-04-21 00:50 | -40.36568 | -69.18683 | 29874 ft | 399 kts | 231° |
| 2026-04-21 00:50 | -40.38084 | -69.21764 | 29437 ft | 394 kts | 231° |
| 2026-04-21 00:50 | -40.39543 | -69.24734 | 29046 ft | 390 kts | 231° |
| 2026-04-21 00:51 | -40.41025 | -69.27753 | 28636 ft | 386 kts | 231° |
| 2026-04-21 00:51 | -40.42453 | -69.30663 | 28231 ft | 384 kts | 231° |
| 2026-04-21 00:51 | -40.43911 | -69.33638 | 27825 ft | 381 kts | 231° |
| 2026-04-21 00:51 | -40.45339 | -69.36553 | 27429 ft | 378 kts | 231° |
| 2026-04-21 00:52 | -40.46737 | -69.39407 | 27042 ft | 376 kts | 232° |
| 2026-04-21 00:52 | -40.48162 | -69.42322 | 26641 ft | 373 kts | 232° |
| 2026-04-21 00:52 | -40.49541 | -69.45144 | 26274 ft | 371 kts | 232° |
| 2026-04-21 00:52 | -40.50931 | -69.47992 | 25885 ft | 370 kts | 232° |
| 2026-04-21 00:53 | -40.52332 | -69.50866 | 25494 ft | 369 kts | 232° |
| 2026-04-21 00:53 | -40.53695 | -69.53663 | 25106 ft | 367 kts | 232° |
| 2026-04-21 00:53 | -40.55087 | -69.56522 | 24729 ft | 366 kts | 232° |
| 2026-04-21 00:53 | -40.56458 | -69.59342 | 24302 ft | 366 kts | 232° |
| 2026-04-21 00:54 | -40.57807 | -69.62118 | 23948 ft | 364 kts | 233° |
| 2026-04-21 00:54 | -40.59189 | -69.64965 | 23507 ft | 364 kts | 233° |
| 2026-04-21 00:54 | -40.60546 | -69.67764 | 23095 ft | 362 kts | 233° |
| 2026-04-21 00:54 | -40.61895 | -69.70550 | 22697 ft | 360 kts | 233° |
| 2026-04-21 00:55 | -40.63220 | -69.73288 | 22317 ft | 358 kts | 233° |
| 2026-04-21 00:55 | -40.64570 | -69.76081 | 21935 ft | 356 kts | 233° |
| 2026-04-21 00:55 | -40.65876 | -69.78786 | 21562 ft | 354 kts | 233° |
| 2026-04-21 00:55 | -40.67210 | -69.81549 | 21187 ft | 352 kts | 234° |
| 2026-04-21 00:56 | -40.68502 | -69.84227 | 20825 ft | 350 kts | 234° |
| 2026-04-21 00:56 | -40.69801 | -69.86922 | 20449 ft | 348 kts | 234° |
| 2026-04-21 00:56 | -40.71094 | -69.89608 | 20091 ft | 346 kts | 234° |
| 2026-04-21 00:56 | -40.72378 | -69.92278 | 19731 ft | 344 kts | 234° |
| 2026-04-21 00:57 | -40.73640 | -69.94907 | 19371 ft | 342 kts | 234° |
| 2026-04-21 00:57 | -40.74912 | -69.97554 | 19009 ft | 341 kts | 234° |
| 2026-04-21 00:57 | -40.76177 | -70.00190 | 18644 ft | 340 kts | 235° |
| 2026-04-21 00:57 | -40.77440 | -70.02825 | 18243 ft | 339 kts | 235° |
| 2026-04-21 00:58 | -40.78695 | -70.05446 | 17849 ft | 337 kts | 235° |
| 2026-04-21 00:58 | -40.79940 | -70.08047 | 17471 ft | 334 kts | 235° |
| 2026-04-21 00:58 | -40.81177 | -70.10634 | 17119 ft | 332 kts | 236° |
| 2026-04-21 00:58 | -40.82405 | -70.13206 | 16756 ft | 330 kts | 236° |
| 2026-04-21 00:59 | -40.83622 | -70.15756 | 16392 ft | 327 kts | 236° |
| 2026-04-21 00:59 | -40.84831 | -70.18289 | 16055 ft | 325 kts | 236° |
| 2026-04-21 00:59 | -40.86033 | -70.20811 | 15699 ft | 323 kts | 236° |
| 2026-04-21 00:59 | -40.87224 | -70.23314 | 15357 ft | 321 kts | 236° |
| 2026-04-21 01:00 | -40.88398 | -70.25781 | 15019 ft | 319 kts | 236° |
| 2026-04-21 01:00 | -40.89575 | -70.28257 | 14679 ft | 317 kts | 236° |
| 2026-04-21 01:00 | -40.90743 | -70.30715 | 14340 ft | 316 kts | 237° |
| 2026-04-21 01:00 | -40.91906 | -70.33173 | 13998 ft | 314 kts | 237° |
| 2026-04-21 01:01 | -40.93051 | -70.35620 | 13617 ft | 312 kts | 237° |
| 2026-04-21 01:01 | -40.94204 | -70.38038 | 13242 ft | 310 kts | 237° |
| 2026-04-21 01:01 | -40.94980 | -70.39666 | 13015 ft | 309 kts | 237° |
| 2026-04-21 01:01 | -40.96487 | -70.42840 | 12549 ft | 306 kts | 237° |
| 2026-04-21 01:02 | -40.97252 | -70.44451 | 12318 ft | 305 kts | 237° |
| 2026-04-21 01:02 | -40.98510 | -70.46725 | 11787 ft | 309 kts | 230° |
| 2026-04-21 01:02 | -40.99874 | -70.48870 | 11414 ft | 308 kts | 230° |
| 2026-04-21 01:02 | -41.01267 | -70.51060 | 11063 ft | 306 kts | 230° |
| 2026-04-21 01:03 | -41.02625 | -70.53228 | 10720 ft | 305 kts | 231° |
| 2026-04-21 01:03 | -41.03938 | -70.55344 | 10563 ft | 297 kts | 231° |
| 2026-04-21 01:03 | -41.05243 | -70.57457 | 10423 ft | 288 kts | 231° |
| 2026-04-21 01:03 | -41.06490 | -70.59481 | 10303 ft | 279 kts | 231° |
| 2026-04-21 01:04 | -41.07686 | -70.61424 | 10140 ft | 273 kts | 231° |
| 2026-04-21 01:04 | -41.08884 | -70.63370 | 9849 ft | 271 kts | 231° |
| 2026-04-21 01:04 | -41.10071 | -70.65301 | 9572 ft | 269 kts | 231° |
| 2026-04-21 01:04 | -41.11264 | -70.67242 | 9288 ft | 267 kts | 231° |
| 2026-04-21 01:05 | -41.12428 | -70.69138 | 9122 ft | 261 kts | 231° |
| 2026-04-21 01:05 | -41.13541 | -70.70951 | 9003 ft | 253 kts | 231° |
| 2026-04-21 01:05 | -41.14640 | -70.72743 | 8790 ft | 249 kts | 231° |
| 2026-04-21 01:05 | -41.15722 | -70.74508 | 8647 ft | 243 kts | 232° |
| 2026-04-21 01:06 | -41.16772 | -70.76221 | 8525 ft | 236 kts | 232° |
| 2026-04-21 01:06 | -41.17792 | -70.77886 | 8342 ft | 232 kts | 232° |
| 2026-04-21 01:06 | -41.18806 | -70.79542 | 8114 ft | 230 kts | 232° |
| 2026-04-21 01:06 | -41.19810 | -70.81184 | 7876 ft | 229 kts | 232° |
| 2026-04-21 01:07 | -41.20812 | -70.82823 | 7663 ft | 226 kts | 232° |
| 2026-04-21 01:07 | -41.21789 | -70.84422 | 7438 ft | 220 kts | 232° |
| 2026-04-21 01:07 | -41.22737 | -70.85974 | 7203 ft | 213 kts | 232° |
| 2026-04-21 01:07 | -41.23649 | -70.87483 | 6978 ft | 205 kts | 236° |
| 2026-04-21 01:08 | -41.24056 | -70.89166 | 6879 ft | 188 kts | 277° |
| 2026-04-21 01:08 | -41.23678 | -70.90785 | 6716 ft | 184 kts | 288° |
| 2026-04-21 01:08 | -41.23233 | -70.92327 | 6474 ft | 172 kts | 291° |
| 2026-04-21 01:08 | -41.22769 | -70.93746 | 6218 ft | 163 kts | 292° |
| 2026-04-21 01:09 | -41.22304 | -70.95105 | 6017 ft | 161 kts | 293° |
| 2026-04-21 01:09 | -41.21832 | -70.96465 | 5767 ft | 164 kts | 293° |
| 2026-04-21 01:09 | -41.21349 | -70.97853 | 5580 ft | 167 kts | 294° |
| 2026-04-21 01:09 | -41.20865 | -70.99239 | 5394 ft | 161 kts | 294° |
| 2026-04-21 01:10 | -41.20406 | -71.00556 | 5142 ft | 152 kts | 294° |
| 2026-04-21 01:10 | -41.19961 | -71.01837 | 4950 ft | 153 kts | 294° |
| 2026-04-21 01:10 | -41.19516 | -71.03112 | 4702 ft | 151 kts | 294° |
| 2026-04-21 01:10 | -41.19367 | -71.03539 | 4637 ft | 151 kts | 294° |
| 2026-04-21 01:11 | -41.18636 | -71.05639 | 4259 ft | 150 kts | 294° |
| 2026-04-21 01:11 | -41.18199 | -71.06902 | 4041 ft | 151 kts | 293° |
| 2026-04-21 01:11 | -41.17756 | -71.08174 | 3822 ft | 152 kts | 294° |
| 2026-04-21 01:11 | -41.17317 | -71.09434 | 3624 ft | 149 kts | 294° |
| 2026-04-21 01:12 | -41.16880 | -71.10685 | 3413 ft | 149 kts | 294° |
| 2026-04-21 01:12 | -41.16442 | -71.11943 | 3189 ft | 151 kts | 293° |
| 2026-04-21 01:12 | -41.16011 | -71.13220 | 3002 ft | 152 kts | 292° |
| 2026-04-21 01:12 | -41.15560 | -71.14493 | 2787 ft | 151 kts | 293° |
| 2026-04-21 01:13 | -41.15149 | -71.15660 | 2749 ft | 115 kts | 295° |
| 2026-04-21 01:13 | -41.14905 | -71.16367 | 2755 ft | 53 kts | 294° |
| 2026-04-21 01:13 | -41.14800 | -71.16664 | 2749 ft | 32 kts | 295° |
| 2026-04-21 01:13 | -41.14723 | -71.16876 | 2749 ft | 13 kts | 305° |
| 2026-04-21 01:14 | -41.14664 | -71.16962 | 2750 ft | 12 kts | 317° |
| 2026-04-21 01:14 | -41.14665 | -71.17016 | 2750 ft | 7 kts | 179° |
| 2026-04-21 01:14 | -41.14698 | -71.16958 | 2751 ft | 12 kts | 115° |
| 2026-04-21 01:14 | -41.14737 | -71.16846 | 2749 ft | 14 kts | 114° |
| 2026-04-21 01:15 | -41.14775 | -71.16734 | 2751 ft | 13 kts | 115° |
| 2026-04-21 01:15 | -41.14813 | -71.16627 | 2750 ft | 13 kts | 114° |
| 2026-04-21 01:15 | -41.14848 | -71.16521 | 2752 ft | 12 kts | 114° |
| 2026-04-21 01:15 | -41.14885 | -71.16419 | 2752 ft | 12 kts | 114° |
| 2026-04-21 01:16 | -41.14876 | -71.16334 | 2752 ft | 8 kts | 48° |
| 2026-04-21 01:16 | -41.14824 | -71.16300 | 2751 ft | 9 kts | 25° |
| 2026-04-21 01:16 | -41.14775 | -71.16266 | 2748 ft | 5 kts | 33° |
| 2026-04-21 01:16 | -41.14744 | -71.16243 | 2748 ft | 5 kts | 15° |
| 2026-04-21 01:17 | -41.14717 | -71.16244 | 2748 ft | 1 kts | 355° |
| 2026-04-21 01:17 | -41.14716 | -71.16244 | 2748 ft | 0 kts | 355° |
| 2026-04-21 01:17 | -41.14701 | -71.16248 | 2748 ft | 3 kts | 347° |
| 2026-04-21 01:17 | -41.14675 | -71.16256 | 2748 ft | 4 kts | 349° |
| 2026-04-21 01:18 | -41.14655 | -71.16235 | 2748 ft | 3 kts | 63° |
| 2026-04-21 01:18 | -41.14653 | -71.16228 | 2748 ft | 0 kts | 71° |
| 2026-04-21 01:18 | -41.14652 | -71.16224 | 2748 ft | 0 kts | 72° |